createdAt,value
2019-05-20T00:01:07.045Z,15.90
2019-05-20T00:03:35.489Z,15.90
2019-05-20T00:06:04.028Z,15.80
2019-05-20T00:08:32.537Z,15.80
2019-05-20T00:11:01.136Z,15.80
2019-05-20T00:13:29.792Z,15.80
2019-05-20T00:15:58.253Z,15.70
2019-05-20T00:18:26.787Z,15.70
2019-05-20T00:20:55.363Z,15.70
2019-05-20T00:23:23.845Z,15.60
2019-05-20T00:25:52.297Z,15.60
2019-05-20T00:28:20.790Z,15.60
2019-05-20T00:30:49.372Z,15.60
2019-05-20T00:33:17.899Z,15.50
2019-05-20T00:35:46.368Z,15.50
2019-05-20T00:38:14.848Z,15.50
2019-05-20T00:40:43.305Z,15.40
2019-05-20T00:43:11.812Z,15.40
2019-05-20T00:45:40.276Z,15.40
2019-05-20T00:48:08.798Z,15.40
2019-05-20T00:50:37.321Z,15.30
2019-05-20T00:53:05.844Z,15.30
2019-05-20T00:55:34.462Z,15.20
2019-05-20T00:58:02.963Z,15.30
2019-05-20T01:00:31.908Z,15.20
2019-05-20T01:03:00.370Z,15.20
2019-05-20T01:05:28.842Z,15.20
2019-05-20T01:07:57.419Z,15.20
2019-05-20T01:10:26.447Z,15.10
2019-05-20T01:12:54.918Z,15.10
2019-05-20T01:15:23.471Z,15.10
2019-05-20T01:17:51.917Z,15.10
2019-05-20T01:20:20.476Z,15.10
2019-05-20T01:22:48.941Z,15.10
2019-05-20T01:25:17.437Z,15.10
2019-05-20T01:27:45.881Z,15.00
2019-05-20T01:30:15.080Z,15.00
2019-05-20T01:32:43.543Z,15.00
2019-05-20T01:35:12.580Z,14.90
2019-05-20T01:37:41.035Z,14.90
2019-05-20T01:40:09.960Z,14.90
2019-05-20T01:42:38.523Z,14.90
2019-05-20T01:45:07.204Z,14.90
2019-05-20T01:47:35.725Z,14.90
2019-05-20T01:50:06.349Z,14.90
2019-05-20T01:52:34.805Z,14.90
2019-05-20T01:55:03.525Z,14.80
2019-05-20T01:57:32.008Z,14.80
2019-05-20T02:00:00.559Z,14.80
2019-05-20T02:02:29.024Z,14.90
2019-05-20T02:04:57.559Z,14.90
2019-05-20T02:07:26.700Z,14.90
2019-05-20T02:09:55.220Z,14.90
2019-05-20T02:12:23.723Z,14.90
2019-05-20T02:14:56.755Z,14.90
2019-05-20T02:17:25.267Z,14.90
2019-05-20T02:19:53.709Z,14.90
2019-05-20T02:22:22.179Z,14.90
2019-05-20T02:24:50.767Z,14.80
2019-05-20T02:27:19.197Z,14.80
2019-05-20T02:29:47.716Z,14.80
2019-05-20T02:32:16.192Z,14.80
2019-05-20T02:34:44.997Z,14.80
2019-05-20T02:37:13.538Z,14.80
2019-05-20T02:39:42.063Z,14.70
2019-05-20T02:42:10.582Z,14.70
2019-05-20T02:44:39.086Z,14.70
2019-05-20T02:47:07.615Z,14.60
2019-05-20T02:49:36.136Z,14.60
2019-05-20T02:52:04.675Z,14.70
2019-05-20T02:54:33.135Z,14.60
2019-05-20T02:57:01.640Z,14.70
2019-05-20T02:59:30.092Z,14.70
2019-05-20T03:01:58.537Z,14.70
2019-05-20T03:04:27.143Z,14.70
2019-05-20T03:06:55.594Z,14.70
2019-05-20T03:09:24.059Z,14.70
2019-05-20T03:11:52.617Z,14.70
2019-05-20T03:14:21.083Z,14.70
2019-05-20T03:16:49.641Z,14.70
2019-05-20T03:19:18.180Z,14.70
2019-05-20T03:21:46.776Z,14.70
2019-05-20T03:24:15.233Z,14.60
2019-05-20T03:26:43.677Z,14.60
2019-05-20T03:29:12.514Z,14.60
2019-05-20T03:31:40.962Z,14.60
2019-05-20T03:34:09.438Z,14.60
2019-05-20T03:36:37.938Z,14.60
2019-05-20T03:39:07.053Z,14.50
2019-05-20T03:41:35.566Z,14.50
2019-05-20T03:44:04.125Z,14.50
2019-05-20T03:46:32.645Z,14.50
2019-05-20T03:49:01.970Z,14.50
2019-05-20T03:51:30.472Z,14.50
2019-05-20T03:53:59.032Z,14.40
2019-05-20T03:56:27.597Z,14.50
2019-05-20T03:58:56.118Z,14.50
2019-05-20T04:01:24.635Z,14.50
2019-05-20T04:03:53.089Z,14.50
2019-05-20T04:06:21.538Z,14.60
2019-05-20T04:08:50.098Z,14.60
2019-05-20T04:11:18.563Z,14.70
2019-05-20T04:13:47.024Z,14.70
2019-05-20T04:16:15.607Z,14.80
2019-05-20T04:18:44.132Z,14.80
2019-05-20T04:21:12.615Z,14.90
2019-05-20T04:23:41.263Z,14.90
2019-05-20T04:26:09.780Z,14.90
2019-05-20T04:28:38.274Z,15.00
2019-05-20T04:31:06.794Z,15.00
2019-05-20T04:33:35.307Z,15.00
2019-05-20T04:36:03.850Z,15.00
2019-05-20T04:38:32.387Z,15.00
2019-05-20T04:41:00.915Z,15.10
2019-05-20T04:43:29.394Z,15.10
2019-05-20T04:45:58.092Z,15.10
2019-05-20T04:48:26.657Z,15.10
2019-05-20T04:50:55.163Z,15.10
2019-05-20T04:53:23.709Z,15.10
2019-05-20T04:55:52.318Z,15.10
2019-05-20T04:58:20.779Z,15.20
2019-05-20T05:00:54.185Z,15.20
2019-05-20T05:03:23.041Z,15.20
2019-05-20T05:05:52.214Z,15.30
2019-05-20T05:08:21.387Z,15.30
2019-05-20T05:10:50.252Z,15.40
2019-05-20T05:13:19.419Z,15.50
2019-05-20T05:15:48.080Z,15.60
2019-05-20T05:18:16.654Z,15.70
2019-05-20T05:20:45.180Z,15.60
2019-05-20T05:23:13.848Z,15.60
2019-05-20T05:25:42.360Z,15.60
2019-05-20T05:28:11.016Z,15.70
2019-05-20T05:30:40.565Z,15.70
2019-05-20T05:33:09.032Z,15.70
2019-05-20T05:35:50.807Z,15.80
2019-05-20T05:38:08.219Z,15.90
2019-05-20T05:40:37.168Z,16.00
2019-05-20T05:43:05.619Z,16.00
2019-05-20T05:45:34.752Z,16.10
2019-05-20T05:48:03.449Z,16.20
2019-05-20T05:50:32.044Z,16.20
2019-05-20T05:53:00.893Z,16.30
2019-05-20T05:55:29.428Z,16.40
2019-05-20T05:57:57.895Z,16.50
2019-05-20T06:00:26.477Z,16.70
2019-05-20T06:02:54.934Z,16.80
2019-05-20T06:05:23.408Z,16.90
2019-05-20T06:07:51.996Z,17.00
2019-05-20T06:10:20.758Z,17.10
2019-05-20T06:12:49.225Z,17.10
2019-05-20T06:15:18.049Z,17.20
2019-05-20T06:17:46.592Z,17.30
2019-05-20T06:20:16.819Z,17.30
2019-05-20T06:22:45.410Z,17.30
2019-05-20T06:25:14.482Z,17.30
2019-05-20T06:27:43.020Z,17.40
2019-05-20T06:30:12.782Z,17.40
2019-05-20T06:32:41.394Z,17.50
2019-05-20T06:35:11.268Z,17.60
2019-05-20T06:37:45.176Z,17.60
2019-05-20T06:40:14.550Z,17.70
2019-05-20T06:42:43.003Z,17.80
2019-05-20T06:45:11.701Z,17.90
2019-05-20T06:47:40.179Z,17.90
2019-05-20T06:50:09.331Z,18.00
2019-05-20T06:52:38.006Z,18.10
2019-05-20T06:55:08.067Z,18.20
2019-05-20T06:57:36.823Z,18.30
2019-05-20T07:00:09.223Z,18.30
2019-05-20T07:02:37.685Z,18.40
2019-05-20T07:05:09.702Z,18.50
2019-05-20T07:07:38.171Z,18.50
2019-05-20T07:10:09.227Z,18.60
2019-05-20T07:12:41.566Z,18.60
2019-05-20T07:15:08.419Z,18.70
2019-05-20T07:17:36.909Z,18.80
2019-05-20T07:20:06.679Z,18.90
2019-05-20T07:22:53.995Z,18.90
2019-05-20T07:25:05.500Z,19.00
2019-05-20T07:27:34.060Z,19.00
2019-05-20T07:30:02.529Z,19.20
2019-05-20T07:32:31.023Z,19.30
2019-05-20T07:34:59.601Z,19.40
2019-05-20T07:37:28.221Z,19.50
2019-05-20T07:39:56.727Z,19.60
2019-05-20T07:42:25.210Z,19.60
2019-05-20T07:44:53.833Z,19.60
2019-05-20T07:47:22.467Z,19.70
2019-05-20T07:49:51.533Z,19.80
2019-05-20T07:52:21.123Z,19.90
2019-05-20T07:54:50.320Z,19.90
2019-05-20T07:57:21.051Z,20.00
2019-05-20T07:59:52.660Z,20.00
2019-05-20T08:02:21.462Z,20.10
2019-05-20T08:04:50.036Z,20.20
2019-05-20T08:07:29.984Z,20.30
2019-05-20T08:09:48.966Z,20.40
2019-05-20T08:12:17.433Z,20.50
2019-05-20T08:14:46.188Z,20.60
2019-05-20T08:17:14.723Z,20.70
2019-05-20T08:19:43.179Z,20.70
2019-05-20T08:22:11.661Z,20.80
2019-05-20T08:24:40.124Z,20.90
2019-05-20T08:27:08.663Z,20.90
2019-05-20T08:29:37.118Z,21.00
2019-05-20T08:32:05.785Z,21.00
2019-05-20T08:34:34.688Z,21.00
2019-05-20T08:37:03.363Z,21.00
2019-05-20T08:39:31.933Z,21.20
2019-05-20T08:42:00.507Z,21.30
2019-05-20T08:44:29.154Z,21.30
2019-05-20T08:46:57.799Z,21.50
2019-05-20T08:49:27.128Z,21.50
2019-05-20T08:51:55.874Z,21.50
2019-05-20T08:54:24.322Z,21.60
2019-05-20T08:56:52.855Z,21.70
2019-05-20T08:59:21.301Z,21.80
2019-05-20T09:01:49.760Z,22.00
2019-05-20T09:04:18.302Z,22.00
2019-05-20T09:06:46.819Z,22.20
2019-05-20T09:09:15.416Z,22.10
2019-05-20T09:11:47.502Z,22.20
2019-05-20T09:14:13.346Z,22.30
2019-05-20T09:16:41.833Z,22.50
2019-05-20T09:19:10.279Z,22.60
2019-05-20T09:21:38.838Z,22.50
2019-05-20T09:24:07.353Z,22.50
2019-05-20T09:26:35.814Z,22.60
2019-05-20T09:29:04.361Z,22.70
2019-05-20T09:31:33.261Z,22.80
2019-05-20T09:34:01.790Z,22.90
2019-05-20T09:36:30.338Z,23.00
2019-05-20T09:38:58.904Z,23.20
2019-05-20T09:41:27.590Z,23.10
2019-05-20T09:43:56.115Z,23.30
2019-05-20T09:46:24.642Z,23.50
2019-05-20T09:48:53.243Z,23.70
2019-05-20T09:51:21.769Z,23.70
2019-05-20T09:53:50.297Z,23.80
2019-05-20T09:56:18.738Z,23.80
2019-05-20T09:58:47.195Z,23.80
2019-05-20T10:01:15.720Z,23.70
2019-05-20T10:03:44.169Z,23.50
2019-05-20T10:06:12.610Z,23.40
2019-05-20T10:08:44.438Z,23.60
2019-05-20T10:11:10.582Z,23.70
2019-05-20T10:13:39.038Z,23.90
2019-05-20T10:16:07.527Z,24.10
2019-05-20T10:18:38.408Z,24.10
2019-05-20T10:21:05.517Z,24.00
2019-05-20T10:23:33.961Z,24.20
2019-05-20T10:26:02.428Z,24.20
2019-05-20T10:28:30.942Z,24.50
2019-05-20T10:30:59.405Z,24.70
2019-05-20T10:33:27.910Z,24.80
2019-05-20T10:35:56.345Z,24.70
2019-05-20T10:38:24.806Z,24.90
2019-05-20T10:40:53.292Z,24.80
2019-05-20T10:43:21.827Z,24.50
2019-05-20T10:45:50.310Z,24.50
2019-05-20T10:48:18.765Z,24.60
2019-05-20T10:50:47.250Z,24.70
2019-05-20T10:53:15.700Z,24.70
2019-05-20T10:55:44.587Z,24.70
2019-05-20T10:58:13.054Z,24.80
2019-05-20T11:01:00.235Z,24.70
2019-05-20T11:03:11.015Z,24.70
2019-05-20T11:05:39.463Z,24.70
2019-05-20T11:08:07.954Z,24.80
2019-05-20T11:10:36.423Z,24.80
2019-05-20T11:13:04.883Z,24.70
2019-05-20T11:15:33.389Z,24.70
2019-05-20T11:18:01.895Z,24.90
2019-05-20T11:20:30.387Z,25.10
2019-05-20T11:23:01.036Z,25.10
2019-05-20T11:25:28.322Z,25.10
2019-05-20T11:27:56.761Z,24.80
2019-05-20T11:30:25.222Z,25.00
2019-05-20T11:32:53.721Z,25.00
2019-05-20T11:35:22.254Z,25.00
2019-05-20T11:37:50.824Z,24.90
2019-05-20T11:40:21.024Z,24.90
2019-05-20T11:42:49.559Z,24.60
2019-05-20T11:45:19.886Z,24.70
2019-05-20T11:47:48.344Z,24.80
2019-05-20T11:50:17.440Z,25.00
2019-05-20T11:52:45.997Z,25.00
2019-05-20T11:55:14.785Z,25.10
2019-05-20T11:57:43.309Z,25.10
2019-05-20T12:00:12.764Z,25.20
2019-05-20T12:02:41.292Z,25.10
2019-05-20T12:05:11.555Z,25.30
2019-05-20T12:07:40.065Z,25.00
2019-05-20T12:10:09.669Z,25.10
2019-05-20T12:12:38.457Z,25.20
2019-05-20T12:15:08.713Z,25.10
2019-05-20T12:17:37.229Z,25.30
2019-05-20T12:20:09.809Z,25.10
2019-05-20T12:22:38.207Z,25.40
2019-05-20T12:25:09.693Z,24.90
2019-05-20T12:27:38.257Z,25.10
2019-05-20T12:30:07.351Z,24.90
2019-05-20T12:32:35.915Z,25.00
2019-05-20T12:35:07.319Z,24.90
2019-05-20T12:37:35.888Z,24.90
2019-05-20T12:40:07.828Z,25.20
2019-05-20T12:42:36.268Z,25.20
2019-05-20T12:45:07.227Z,25.00
2019-05-20T12:47:35.679Z,24.90
2019-05-20T12:50:05.140Z,25.00
2019-05-20T12:52:33.700Z,24.80
2019-05-20T12:55:07.992Z,24.70
2019-05-20T12:57:31.648Z,24.70
2019-05-20T13:00:00.167Z,24.50
2019-05-20T13:02:28.637Z,24.60
2019-05-20T13:04:57.165Z,24.70
2019-05-20T13:07:25.665Z,24.70
2019-05-20T13:09:54.133Z,24.60
2019-05-20T13:12:22.578Z,24.50
2019-05-20T13:14:51.123Z,24.60
2019-05-20T13:17:19.644Z,24.70
2019-05-20T13:19:48.102Z,24.80
2019-05-20T13:22:16.612Z,24.70
2019-05-20T13:24:45.141Z,24.70
2019-05-20T13:27:13.663Z,24.60
2019-05-20T13:29:42.179Z,24.60
2019-05-20T13:32:10.635Z,24.40
2019-05-20T13:34:39.162Z,24.30
2019-05-20T13:37:07.672Z,24.20
2019-05-20T13:39:37.860Z,24.20
2019-05-20T13:42:05.683Z,24.10
2019-05-20T13:44:34.201Z,24.10
2019-05-20T13:47:03.257Z,23.90
2019-05-20T13:49:31.946Z,23.80
2019-05-20T13:52:00.389Z,23.70
2019-05-20T13:54:29.094Z,23.70
2019-05-20T13:56:57.559Z,23.60
2019-05-20T13:59:26.206Z,23.50
2019-05-20T14:01:54.779Z,23.30
2019-05-20T14:04:23.224Z,23.20
2019-05-20T14:06:51.677Z,23.10
2019-05-20T14:09:20.267Z,22.90
2019-05-20T14:11:48.720Z,22.80
2019-05-20T14:14:17.186Z,22.70
2019-05-20T14:16:45.754Z,22.60
2019-05-20T14:19:14.283Z,22.40
2019-05-20T14:21:43.007Z,22.20
2019-05-20T14:24:11.481Z,21.90
2019-05-20T14:26:40.026Z,21.60
2019-05-20T14:29:08.657Z,21.40
2019-05-20T14:31:37.133Z,21.40
2019-05-20T14:34:05.595Z,21.20
2019-05-20T14:36:40.047Z,21.10
2019-05-20T14:39:05.500Z,21.00
2019-05-20T14:41:33.961Z,20.90
2019-05-20T14:44:02.494Z,20.80
2019-05-20T14:46:31.029Z,20.70
2019-05-20T14:49:02.481Z,20.60
2019-05-20T14:51:29.098Z,20.40
2019-05-20T14:53:57.582Z,20.30
2019-05-20T14:56:26.099Z,20.30
2019-05-20T14:58:55.671Z,20.20
2019-05-20T15:01:24.394Z,20.00
2019-05-20T15:03:52.910Z,19.90
2019-05-20T15:06:21.437Z,19.80
2019-05-20T15:08:50.046Z,19.80
2019-05-20T15:11:18.511Z,19.70
2019-05-20T15:13:46.980Z,19.60
2019-05-20T15:16:15.543Z,19.50
2019-05-20T15:18:43.995Z,19.30
2019-05-20T15:21:12.531Z,19.30
2019-05-20T15:23:41.065Z,19.30
2019-05-20T15:26:09.608Z,19.30
2019-05-20T15:28:38.065Z,19.30
2019-05-20T15:31:06.765Z,19.30
2019-05-20T15:33:35.572Z,19.30
2019-05-20T15:36:04.235Z,19.30
2019-05-20T15:38:32.717Z,19.40
2019-05-20T15:41:01.399Z,19.40
2019-05-20T15:43:29.860Z,19.40
2019-05-20T15:45:58.328Z,19.40
2019-05-20T15:48:26.850Z,19.40
2019-05-20T15:50:55.324Z,19.30
2019-05-20T15:53:23.838Z,19.30
2019-05-20T15:55:52.352Z,19.30
2019-05-20T15:58:23.723Z,19.20
2019-05-20T16:01:10.412Z,19.10
2019-05-20T16:03:38.945Z,19.00
2019-05-20T16:06:07.433Z,19.10
2019-05-20T16:08:36.024Z,19.30
2019-05-20T16:11:06.833Z,19.70
2019-05-20T16:13:33.960Z,20.10
2019-05-20T16:16:02.553Z,20.10
2019-05-20T16:18:31.003Z,20.10
2019-05-20T16:20:59.638Z,20.10
2019-05-20T16:23:28.385Z,20.00
2019-05-20T16:25:56.905Z,19.90
2019-05-20T16:28:25.374Z,19.80
2019-05-20T16:30:53.927Z,19.80
2019-05-20T16:33:22.431Z,20.00
2019-05-20T16:35:51.009Z,20.50
2019-05-20T16:38:19.455Z,21.00
2019-05-20T16:40:48.235Z,21.40
2019-05-20T16:43:16.679Z,21.90
2019-05-20T16:45:45.136Z,22.00
2019-05-20T16:48:13.671Z,21.80
2019-05-20T16:50:42.188Z,21.80
2019-05-20T16:53:10.645Z,21.60
2019-05-20T16:55:39.231Z,21.80
2019-05-20T16:58:07.796Z,21.80
2019-05-20T17:00:36.266Z,21.70
2019-05-20T17:03:04.844Z,21.60
2019-05-20T17:05:33.331Z,21.50
2019-05-20T17:08:01.937Z,21.30
2019-05-20T17:10:30.423Z,21.10
2019-05-20T17:12:58.884Z,21.00
2019-05-20T17:15:27.376Z,20.90
2019-05-20T17:17:55.879Z,20.90
2019-05-20T17:20:24.337Z,20.80
2019-05-20T17:22:52.803Z,20.70
2019-05-20T17:25:21.461Z,20.70
2019-05-20T17:27:49.993Z,20.50
2019-05-20T17:30:18.998Z,20.40
2019-05-20T17:32:47.552Z,20.40
2019-05-20T17:35:16.558Z,20.40
2019-05-20T17:37:45.025Z,20.30
2019-05-20T17:40:14.577Z,20.20
2019-05-20T17:42:43.067Z,20.00
2019-05-20T17:45:12.544Z,19.90
2019-05-20T17:47:41.295Z,19.80
2019-05-20T17:50:10.385Z,19.70
2019-05-20T17:52:38.893Z,19.60
2019-05-20T17:55:08.095Z,19.50
2019-05-20T17:57:36.726Z,19.40
2019-05-20T18:02:44.903Z,19.30
2019-05-20T18:05:14.987Z,19.20
2019-05-20T18:07:43.632Z,19.20
2019-05-20T18:10:12.271Z,19.10
2019-05-20T18:12:40.767Z,19.10
2019-05-20T18:15:11.088Z,19.00
2019-05-20T18:17:38.853Z,19.00
2019-05-20T18:20:07.735Z,18.90
2019-05-20T18:22:36.196Z,18.90
2019-05-20T18:25:06.502Z,18.80
2019-05-20T18:27:34.187Z,18.80
2019-05-20T18:30:02.878Z,18.70
2019-05-20T18:32:31.506Z,18.60
2019-05-20T18:35:00.043Z,18.50
2019-05-20T18:37:28.566Z,18.50
2019-05-20T18:40:12.511Z,18.40
2019-05-20T18:42:27.211Z,18.40
2019-05-20T18:44:55.795Z,18.30
2019-05-20T18:47:24.257Z,18.20
2019-05-20T18:49:52.794Z,18.20
2019-05-20T18:52:21.332Z,18.10
2019-05-20T18:54:49.778Z,18.00
2019-05-20T18:57:18.322Z,18.00
2019-05-20T18:59:46.778Z,17.90
2019-05-20T19:02:15.240Z,17.80
2019-05-20T19:04:43.746Z,17.80
2019-05-20T19:07:12.246Z,17.70
2019-05-20T19:09:40.699Z,17.70
2019-05-20T19:12:09.722Z,17.60
2019-05-20T19:14:38.174Z,17.50
2019-05-20T19:17:06.641Z,17.50
2019-05-20T19:19:35.175Z,17.40
2019-05-20T19:22:03.630Z,17.40
2019-05-20T19:24:32.086Z,17.40
2019-05-20T19:27:00.588Z,17.30
2019-05-20T19:29:29.046Z,17.30
2019-05-20T19:32:01.742Z,17.20
2019-05-20T19:34:27.752Z,17.20
2019-05-20T19:36:56.287Z,17.10
2019-05-20T19:39:24.901Z,17.10
2019-05-20T19:41:53.431Z,17.00
2019-05-20T19:44:21.894Z,17.00
2019-05-20T19:46:50.415Z,17.00
2019-05-20T19:49:18.871Z,16.90
2019-05-20T19:51:47.331Z,16.90
2019-05-20T19:54:15.824Z,16.90
2019-05-20T19:56:44.285Z,16.90
2019-05-20T19:59:12.803Z,16.90
2019-05-20T20:01:41.262Z,16.90
2019-05-20T20:04:09.735Z,16.90
2019-05-20T20:06:38.230Z,16.90
2019-05-20T20:09:07.316Z,16.90
2019-05-20T20:11:35.826Z,16.90
2019-05-20T20:14:04.356Z,16.90
2019-05-20T20:16:32.817Z,16.90
2019-05-20T20:19:01.323Z,16.90
2019-05-20T20:21:29.888Z,16.90
2019-05-20T20:23:58.380Z,16.80
2019-05-20T20:26:26.938Z,16.80
2019-05-20T20:28:55.402Z,16.70
2019-05-20T20:31:23.862Z,16.70
2019-05-20T20:33:52.370Z,16.60
2019-05-20T20:36:21.495Z,16.60
2019-05-20T20:38:50.163Z,16.50
2019-05-20T20:41:18.777Z,16.50
2019-05-20T20:43:47.306Z,16.40
2019-05-20T20:46:15.772Z,16.40
2019-05-20T20:48:44.365Z,16.40
2019-05-20T20:51:13.012Z,16.30
2019-05-20T20:53:41.614Z,16.20
2019-05-20T20:56:24.144Z,16.20
2019-05-20T20:58:40.395Z,16.10
2019-05-20T21:01:09.363Z,16.10
2019-05-20T21:03:37.866Z,16.00
2019-05-20T21:06:06.399Z,16.00
2019-05-20T21:08:34.991Z,15.90
2019-05-20T21:11:03.451Z,15.90
2019-05-20T21:13:31.983Z,15.80
2019-05-20T21:16:00.479Z,15.80
2019-05-20T21:18:28.939Z,15.70
2019-05-20T21:20:57.444Z,15.60
2019-05-20T21:23:26.011Z,15.60
2019-05-20T21:25:54.511Z,15.60
2019-05-20T21:28:22.967Z,15.50
2019-05-20T21:30:51.605Z,15.40
2019-05-20T21:33:20.178Z,15.40
2019-05-20T21:35:48.635Z,15.30
2019-05-20T21:38:17.159Z,15.30
2019-05-20T21:40:45.614Z,15.20
2019-05-20T21:43:14.138Z,15.20
2019-05-20T21:45:42.639Z,15.20
2019-05-20T21:48:11.099Z,15.20
2019-05-20T21:50:39.599Z,15.10
2019-05-20T21:53:08.121Z,15.00
2019-05-20T21:55:36.613Z,15.00
2019-05-20T21:58:05.078Z,15.00
2019-05-20T22:00:38.402Z,14.90
2019-05-20T22:03:06.854Z,14.90
2019-05-20T22:05:35.389Z,14.80
2019-05-20T22:08:04.312Z,14.70
2019-05-20T22:10:32.910Z,14.70
2019-05-20T22:13:01.430Z,14.70
2019-05-20T22:15:29.890Z,14.60
2019-05-20T22:17:58.353Z,14.60
2019-05-20T22:20:26.883Z,14.50
2019-05-20T22:23:13.094Z,14.40
2019-05-20T22:25:41.600Z,14.40
2019-05-20T22:28:12.742Z,14.40
2019-05-20T22:30:40.308Z,14.30
2019-05-20T22:33:08.826Z,14.30
2019-05-20T22:35:37.759Z,14.30
2019-05-20T22:38:06.253Z,14.20
2019-05-20T22:40:34.719Z,14.20
2019-05-20T22:43:03.212Z,14.10
2019-05-20T22:45:33.011Z,14.10
2019-05-20T22:48:01.528Z,14.00
2019-05-20T22:50:30.087Z,14.00
2019-05-20T22:52:58.663Z,14.00
2019-05-20T22:55:27.194Z,13.90
2019-05-20T22:57:55.698Z,13.90
2019-05-20T23:00:24.224Z,13.80
2019-05-20T23:02:52.838Z,13.80
2019-05-20T23:05:21.291Z,13.80
2019-05-20T23:07:49.747Z,13.70
2019-05-20T23:10:18.262Z,13.70
2019-05-20T23:12:46.728Z,13.70
2019-05-20T23:15:15.256Z,13.60
2019-05-20T23:17:43.786Z,13.60
2019-05-20T23:20:12.659Z,13.60
2019-05-20T23:22:41.131Z,13.50
2019-05-20T23:25:10.332Z,13.50
2019-05-20T23:27:38.946Z,13.50
2019-05-20T23:30:08.194Z,13.50
2019-05-20T23:32:36.779Z,13.40
2019-05-20T23:35:06.670Z,13.40
2019-05-20T23:37:35.166Z,13.40
2019-05-20T23:40:07.683Z,13.30
2019-05-20T23:42:36.220Z,13.30
2019-05-20T23:45:06.626Z,13.30
2019-05-20T23:47:34.340Z,13.30
2019-05-20T23:50:02.797Z,13.30
2019-05-20T23:52:31.300Z,13.30
2019-05-20T23:54:59.822Z,13.40
2019-05-20T23:57:40.844Z,13.40
